createdAt,value
2023-05-14T00:02:22.110Z,101296.34
2023-05-14T00:04:49.961Z,101284.41
2023-05-14T00:07:17.809Z,101290.13
2023-05-14T00:09:45.518Z,101286.16
2023-05-14T00:12:13.188Z,101301.56
2023-05-14T00:14:40.821Z,101290.34
2023-05-14T00:17:08.550Z,101286.31
2023-05-14T00:19:37.628Z,101272.13
2023-05-14T00:22:05.577Z,101279.16
2023-05-14T00:24:33.288Z,101274.03
2023-05-14T00:27:00.986Z,101280.63
2023-05-14T00:29:28.653Z,101271.72
2023-05-14T00:31:56.351Z,101284.34
2023-05-14T00:34:24.268Z,101269.47
2023-05-14T00:36:53.668Z,101279.25
2023-05-14T00:39:21.348Z,101273.25
2023-05-14T00:41:49.020Z,101271.72
2023-05-14T00:44:16.735Z,101264.88
2023-05-14T00:46:44.677Z,101260.22
2023-05-14T00:49:12.427Z,101257.75
2023-05-14T00:51:41.452Z,101264.41
2023-05-14T00:54:10.951Z,101257.94
2023-05-14T00:56:38.609Z,101259.28
2023-05-14T00:59:06.445Z,101259.88
2023-05-14T01:01:34.277Z,101249.13
2023-05-14T01:04:02.384Z,101254.16
2023-05-14T01:06:33.533Z,101252.22
2023-05-14T01:09:09.096Z,101253.41
2023-05-14T01:11:43.819Z,101244.31
2023-05-14T01:14:17.340Z,101250.00
2023-05-14T01:16:46.792Z,101250.84
2023-05-14T01:19:22.883Z,101243.69
2023-05-14T01:21:51.920Z,101247.59
2023-05-14T01:24:20.098Z,101241.13
2023-05-14T01:26:47.811Z,101239.50
2023-05-14T01:29:21.491Z,101231.25
2023-05-14T01:31:51.161Z,101228.44
2023-05-14T01:34:21.373Z,101245.41
2023-05-14T01:36:49.747Z,101240.13
2023-05-14T01:39:18.909Z,101246.53
2023-05-14T01:41:47.146Z,101237.22
2023-05-14T01:44:15.172Z,101231.34
2023-05-14T01:46:42.942Z,101242.91
2023-05-14T01:49:10.640Z,101234.59
2023-05-14T01:51:38.320Z,101233.13
2023-05-14T01:54:06.202Z,101232.34
2023-05-14T01:56:35.357Z,101229.00
2023-05-14T01:59:03.109Z,101231.25
2023-05-14T02:01:30.902Z,101229.72
2023-05-14T02:03:58.702Z,101232.88
2023-05-14T02:06:26.428Z,101224.50
2023-05-14T02:08:54.211Z,101220.53
2023-05-14T02:11:22.019Z,101215.19
2023-05-14T02:13:51.095Z,101209.13
2023-05-14T02:16:19.308Z,101202.75
2023-05-14T02:18:47.105Z,101207.03
2023-05-14T02:21:14.816Z,101191.25
2023-05-14T02:23:43.025Z,101195.94
2023-05-14T02:26:11.030Z,101199.50
2023-05-14T02:28:38.823Z,101192.91
2023-05-14T02:31:07.992Z,101191.59
2023-05-14T02:33:36.011Z,101197.34
2023-05-14T02:36:03.860Z,101193.94
2023-05-14T02:38:31.577Z,101191.59
2023-05-14T02:40:59.658Z,101192.66
2023-05-14T02:43:27.332Z,101191.72
2023-05-14T02:45:55.041Z,101185.94
2023-05-14T02:48:24.197Z,101186.31
2023-05-14T02:50:52.208Z,101192.13
2023-05-14T02:53:19.934Z,101188.47
2023-05-14T02:55:47.574Z,101195.56
2023-05-14T02:58:15.915Z,101195.44
2023-05-14T03:00:43.606Z,101197.94
2023-05-14T03:03:11.776Z,101194.63
2023-05-14T03:05:41.392Z,101191.59
2023-05-14T03:08:09.054Z,101191.28
2023-05-14T03:10:37.053Z,101188.81
2023-05-14T03:13:04.848Z,101191.28
2023-05-14T03:15:32.492Z,101182.88
2023-05-14T03:18:00.200Z,101183.44
2023-05-14T03:20:28.161Z,101180.47
2023-05-14T03:22:57.230Z,101184.31
2023-05-14T03:25:24.884Z,101186.44
2023-05-14T03:27:52.719Z,101183.22
2023-05-14T03:30:20.536Z,101183.84
2023-05-14T03:32:49.225Z,101184.91
2023-05-14T03:35:17.071Z,101181.13
2023-05-14T03:37:44.925Z,101180.72
2023-05-14T03:40:14.149Z,101180.03
2023-05-14T03:42:41.793Z,101179.34
2023-05-14T03:45:10.779Z,101170.97
2023-05-14T03:47:38.573Z,101174.06
2023-05-14T03:50:07.677Z,101169.56
2023-05-14T03:52:35.443Z,101162.09
2023-05-14T03:55:03.119Z,101161.63
2023-05-14T03:57:32.202Z,101157.75
2023-05-14T03:59:59.841Z,101162.75
2023-05-14T04:02:27.611Z,101160.06
2023-05-14T04:04:55.437Z,101160.97
2023-05-14T04:07:23.590Z,101163.03
2023-05-14T04:09:52.126Z,101162.56
2023-05-14T04:12:19.899Z,101160.78
2023-05-14T04:14:48.989Z,101160.84
2023-05-14T04:17:16.656Z,101160.47
2023-05-14T04:19:44.368Z,101163.25
2023-05-14T04:22:12.148Z,101162.09
2023-05-14T04:24:39.866Z,101155.72
2023-05-14T04:27:07.596Z,101164.72
2023-05-14T04:29:35.283Z,101163.06
2023-05-14T04:32:04.883Z,101167.31
2023-05-14T04:34:32.687Z,101150.03
2023-05-14T04:37:00.368Z,101169.72
2023-05-14T04:39:28.057Z,101163.84
2023-05-14T04:41:55.768Z,101163.63
2023-05-14T04:44:23.461Z,101178.88
2023-05-14T04:46:51.203Z,101175.88
2023-05-14T04:49:20.836Z,101171.44
2023-05-14T04:51:48.657Z,101176.94
2023-05-14T04:54:16.392Z,101168.25
2023-05-14T04:56:44.116Z,101173.06
2023-05-14T04:59:11.840Z,101175.13
2023-05-14T05:01:39.621Z,101172.94
2023-05-14T05:04:07.458Z,101166.16
2023-05-14T05:06:36.520Z,101175.97
2023-05-14T05:09:04.519Z,101166.59
2023-05-14T05:11:32.194Z,101172.13
2023-05-14T05:14:00.288Z,101173.25
2023-05-14T05:16:28.005Z,101184.84
2023-05-14T05:18:55.845Z,101187.63
2023-05-14T05:21:23.579Z,101177.84
2023-05-14T05:23:52.611Z,101152.19
2023-05-14T05:26:22.274Z,101154.31
2023-05-14T05:28:49.990Z,101168.47
2023-05-14T05:31:19.653Z,101168.63
2023-05-14T05:33:47.724Z,101180.28
2023-05-14T05:36:15.427Z,101176.53
2023-05-14T05:38:43.192Z,101179.34
2023-05-14T05:41:12.237Z,101158.97
2023-05-14T05:43:39.959Z,101157.94
2023-05-14T05:46:08.121Z,101152.06
2023-05-14T05:48:35.839Z,101151.75
2023-05-14T05:51:03.492Z,101159.69
2023-05-14T05:53:31.213Z,101162.66
2023-05-14T05:55:58.910Z,101162.91
2023-05-14T05:58:27.987Z,101170.09
2023-05-14T06:00:57.604Z,101172.09
2023-05-14T06:03:25.307Z,101176.63
2023-05-14T06:05:53.637Z,101170.88
2023-05-14T06:08:21.727Z,101148.06
2023-05-14T06:10:49.374Z,101156.34
2023-05-14T06:13:17.069Z,101158.56
2023-05-14T06:15:46.089Z,101172.75
2023-05-14T06:18:13.805Z,101174.94
2023-05-14T06:20:41.687Z,101170.63
2023-05-14T06:23:12.237Z,101154.69
2023-05-14T06:25:39.971Z,101161.25
2023-05-14T06:28:07.623Z,101169.53
2023-05-14T06:30:35.318Z,101162.53
2023-05-14T06:33:04.649Z,101168.69
2023-05-14T06:35:32.430Z,101191.00
2023-05-14T06:38:00.134Z,101210.78
2023-05-14T06:40:27.895Z,101198.16
2023-05-14T06:42:55.568Z,101184.66
2023-05-14T06:45:23.619Z,101177.53
2023-05-14T06:47:51.382Z,101180.75
2023-05-14T06:50:20.579Z,101202.50
2023-05-14T06:52:48.403Z,101204.16
2023-05-14T06:55:16.119Z,101196.63
2023-05-14T06:57:44.638Z,101158.94
2023-05-14T07:00:14.353Z,101171.28
2023-05-14T07:02:42.086Z,101164.03
2023-05-14T07:05:10.346Z,101178.84
2023-05-14T07:07:39.880Z,101168.53
2023-05-14T07:10:09.193Z,101171.91
2023-05-14T07:12:37.266Z,101165.72
2023-05-14T07:15:05.673Z,101161.59
2023-05-14T07:17:33.343Z,101170.00
2023-05-14T07:20:01.005Z,101157.53
2023-05-14T07:22:28.627Z,101161.16
2023-05-14T07:24:57.676Z,101165.78
2023-05-14T07:27:25.340Z,101168.22
2023-05-14T07:29:53.037Z,101171.19
2023-05-14T07:32:20.719Z,101157.72
2023-05-14T07:34:48.800Z,101153.53
2023-05-14T07:37:16.705Z,101157.47
2023-05-14T07:39:44.437Z,101162.94
2023-05-14T07:42:21.790Z,101178.22
2023-05-14T07:44:52.632Z,101164.75
2023-05-14T07:47:20.393Z,101149.75
2023-05-14T07:49:48.114Z,101166.94
2023-05-14T07:52:15.860Z,101168.09
2023-05-14T07:54:43.546Z,101150.88
2023-05-14T07:57:11.260Z,101160.66
2023-05-14T07:59:40.463Z,101146.97
2023-05-14T08:02:10.125Z,101164.28
2023-05-14T08:04:37.985Z,101170.69
2023-05-14T08:07:07.272Z,101161.16
2023-05-14T08:09:35.157Z,101152.75
2023-05-14T08:12:02.900Z,101158.31
2023-05-14T08:14:30.628Z,101162.53
2023-05-14T08:17:00.068Z,101170.53
2023-05-14T08:19:27.841Z,101166.78
2023-05-14T08:21:55.550Z,101158.66
2023-05-14T08:24:23.222Z,101161.06
2023-05-14T08:26:50.908Z,101155.88
2023-05-14T08:29:18.761Z,101163.81
2023-05-14T08:31:46.511Z,101171.50
2023-05-14T08:34:15.689Z,101160.41
2023-05-14T08:36:43.567Z,101157.94
2023-05-14T08:39:11.231Z,101168.03
2023-05-14T08:41:38.893Z,101162.22
2023-05-14T08:44:09.259Z,101159.94
2023-05-14T08:46:37.887Z,101171.06
2023-05-14T08:49:11.276Z,101164.03
2023-05-14T08:51:41.083Z,101152.66
2023-05-14T08:54:08.758Z,101155.16
2023-05-14T08:56:36.942Z,101153.97
2023-05-14T08:59:04.986Z,101158.94
2023-05-14T09:01:32.785Z,101168.47
2023-05-14T09:04:01.555Z,101159.78
2023-05-14T09:06:29.578Z,101164.38
2023-05-14T09:08:58.687Z,101158.34
2023-05-14T09:11:26.393Z,101144.34
2023-05-14T09:13:54.110Z,101158.34
2023-05-14T09:16:22.149Z,101166.75
2023-05-14T09:18:49.936Z,101134.19
2023-05-14T09:21:18.939Z,101134.75
2023-05-14T09:23:47.766Z,101147.97
2023-05-14T09:26:18.162Z,101147.53
2023-05-14T09:28:45.896Z,101148.03
2023-05-14T09:31:13.696Z,101136.44
2023-05-14T09:33:41.431Z,101126.41
2023-05-14T09:36:09.479Z,101139.16
2023-05-14T09:38:37.103Z,101142.28
2023-05-14T09:41:04.998Z,101138.03
2023-05-14T09:43:34.056Z,101133.91
2023-05-14T09:46:01.750Z,101129.81
2023-05-14T09:48:29.715Z,101128.31
2023-05-14T09:50:57.623Z,101122.78
2023-05-14T09:53:26.066Z,101103.63
2023-05-14T09:55:53.782Z,101116.34
2023-05-14T09:58:21.492Z,101102.16
2023-05-14T10:00:51.297Z,101116.34
2023-05-14T10:03:20.190Z,101117.97
2023-05-14T10:05:51.105Z,101111.44
2023-05-14T10:08:23.108Z,101097.91
2023-05-14T10:10:52.442Z,101098.22
2023-05-14T10:13:22.183Z,101084.50
2023-05-14T10:15:54.954Z,101097.53
2023-05-14T10:18:24.937Z,101074.81
2023-05-14T10:20:58.384Z,101098.38
2023-05-14T10:23:26.365Z,101089.00
2023-05-14T10:25:54.214Z,101090.75
2023-05-14T10:28:21.968Z,101083.09
2023-05-14T10:30:51.096Z,101093.75
2023-05-14T10:33:19.069Z,101072.09
2023-05-14T10:35:56.306Z,101079.81
2023-05-14T10:38:27.081Z,101079.41
2023-05-14T10:41:00.138Z,101072.69
2023-05-14T10:43:29.397Z,101076.50
2023-05-14T10:45:59.401Z,101080.25
2023-05-14T10:48:27.334Z,101082.00
2023-05-14T10:50:55.613Z,101081.56
2023-05-14T10:53:33.047Z,101080.97
2023-05-14T10:56:05.310Z,101084.91
2023-05-14T10:58:34.696Z,101057.53
2023-05-14T11:01:04.787Z,101049.84
2023-05-14T11:03:32.620Z,101058.03
2023-05-14T11:06:02.497Z,101059.09
2023-05-14T11:08:30.439Z,101051.97
2023-05-14T11:10:58.517Z,101058.22
2023-05-14T11:13:27.320Z,101041.09
2023-05-14T11:15:55.208Z,101049.31
2023-05-14T11:18:31.681Z,101037.78
2023-05-14T11:21:00.279Z,101046.69
2023-05-14T11:23:28.671Z,101054.88
2023-05-14T11:25:57.751Z,101041.06
2023-05-14T11:28:27.209Z,101029.41
2023-05-14T11:30:55.485Z,101028.53
2023-05-14T11:33:23.279Z,101027.00
2023-05-14T11:35:52.350Z,101016.72
2023-05-14T11:38:23.111Z,101029.69
2023-05-14T11:40:54.565Z,101024.88
2023-05-14T11:43:23.738Z,101023.50
2023-05-14T11:45:52.556Z,101021.38
2023-05-14T11:48:20.821Z,101017.97
2023-05-14T11:50:50.044Z,101017.44
2023-05-14T11:53:20.354Z,100994.31
2023-05-14T11:55:54.777Z,100999.47
2023-05-14T11:58:24.720Z,101009.63
2023-05-14T12:00:57.382Z,101009.06
2023-05-14T12:03:29.584Z,100996.44
2023-05-14T12:06:00.666Z,100995.53
2023-05-14T12:08:31.264Z,100997.34
2023-05-14T12:11:00.467Z,101012.28
2023-05-14T12:13:28.784Z,101000.50
2023-05-14T12:15:58.004Z,100992.06
2023-05-14T12:18:26.694Z,101001.31
2023-05-14T12:20:54.701Z,101002.28
2023-05-14T12:23:26.825Z,101004.03
2023-05-14T12:25:56.421Z,100992.44
2023-05-14T12:28:24.995Z,100993.25
2023-05-14T12:30:57.642Z,100979.09
2023-05-14T12:33:26.507Z,100962.44
2023-05-14T12:35:58.957Z,100954.31
2023-05-14T12:38:28.369Z,100972.59
2023-05-14T12:40:57.401Z,100977.03
2023-05-14T12:43:25.080Z,100952.91
2023-05-14T12:45:52.780Z,100956.38
2023-05-14T12:48:20.552Z,100950.38
2023-05-14T12:50:48.755Z,100946.41
2023-05-14T12:53:16.822Z,100953.53
2023-05-14T12:55:44.514Z,100928.81
2023-05-14T12:58:13.705Z,100948.00
2023-05-14T13:00:41.407Z,100936.84
2023-05-14T13:03:09.149Z,100949.88
2023-05-14T13:05:36.886Z,100950.38
2023-05-14T13:08:04.595Z,100938.09
2023-05-14T13:10:32.366Z,100949.31
2023-05-14T13:13:00.113Z,100947.19
2023-05-14T13:15:31.556Z,100954.44
2023-05-14T13:17:59.347Z,100954.34
2023-05-14T13:20:27.572Z,100962.16
2023-05-14T13:22:55.356Z,100946.25
2023-05-14T13:25:23.289Z,100942.59
2023-05-14T13:27:51.709Z,100913.81
2023-05-14T13:30:19.613Z,100938.56
2023-05-14T13:32:48.840Z,100942.25
2023-05-14T13:35:16.622Z,100914.72
2023-05-14T13:37:44.766Z,100923.16
2023-05-14T13:40:13.342Z,100916.84
2023-05-14T13:42:41.099Z,100934.72
2023-05-14T13:45:09.819Z,100928.13
2023-05-14T13:47:37.575Z,100897.28
2023-05-14T13:50:07.816Z,100907.78
2023-05-14T13:52:35.537Z,100900.69
2023-05-14T13:55:03.177Z,100906.41
2023-05-14T13:57:30.821Z,100888.13
2023-05-14T13:59:58.556Z,100905.03
2023-05-14T14:02:26.303Z,100913.03
2023-05-14T14:04:54.434Z,100907.13
2023-05-14T14:07:23.531Z,100877.63
2023-05-14T14:09:51.482Z,100895.22
2023-05-14T14:12:19.185Z,100905.03
2023-05-14T14:14:46.942Z,100912.13
2023-05-14T14:17:14.640Z,100904.78
2023-05-14T14:19:42.451Z,100895.13
2023-05-14T14:22:10.306Z,100869.19
2023-05-14T14:24:39.452Z,100872.59
2023-05-14T14:27:07.185Z,100888.50
2023-05-14T14:29:35.466Z,100868.97
2023-05-14T14:32:03.188Z,100863.25
2023-05-14T14:34:31.014Z,100870.66
2023-05-14T14:36:58.699Z,100868.28
2023-05-14T14:39:26.534Z,100863.75
2023-05-14T14:41:56.106Z,100860.16
2023-05-14T14:44:23.818Z,100864.66
2023-05-14T14:46:51.588Z,100863.66
2023-05-14T14:49:19.228Z,100867.88
2023-05-14T14:51:46.937Z,100873.09
2023-05-14T14:54:14.600Z,100874.94
2023-05-14T14:56:43.350Z,100875.69
2023-05-14T14:59:12.422Z,100873.88
2023-05-14T15:01:40.181Z,100882.09
2023-05-14T15:04:08.010Z,100864.34
2023-05-14T15:06:35.647Z,100860.84
2023-05-14T15:09:03.611Z,100868.19
2023-05-14T15:11:31.318Z,100884.44
2023-05-14T15:13:58.981Z,100865.72
2023-05-14T15:16:29.187Z,100850.03
2023-05-14T15:18:56.925Z,100857.81
2023-05-14T15:21:24.638Z,100863.66
2023-05-14T15:23:52.352Z,100849.69
2023-05-14T15:26:20.230Z,100858.75
2023-05-14T15:28:47.995Z,100867.06
2023-05-14T15:31:15.746Z,100842.03
2023-05-14T15:33:44.834Z,100845.59
2023-05-14T15:36:12.841Z,100846.69
2023-05-14T15:38:40.601Z,100843.75
2023-05-14T15:41:08.599Z,100856.13
2023-05-14T15:43:36.573Z,100839.34
2023-05-14T15:46:04.267Z,100841.59
2023-05-14T15:48:32.001Z,100829.63
2023-05-14T15:51:01.034Z,100819.53
2023-05-14T15:53:28.882Z,100835.50
2023-05-14T15:55:56.589Z,100847.41
2023-05-14T15:58:24.243Z,100836.91
2023-05-14T16:00:51.904Z,100825.88
2023-05-14T16:03:19.730Z,100822.34
2023-05-14T16:05:48.553Z,100825.03
2023-05-14T16:08:17.656Z,100821.97
2023-05-14T16:10:45.374Z,100831.94
2023-05-14T16:13:13.096Z,100820.13
2023-05-14T16:15:40.770Z,100834.75
2023-05-14T16:18:08.617Z,100833.59
2023-05-14T16:20:36.283Z,100827.91
2023-05-14T16:23:04.024Z,100819.41
2023-05-14T16:25:33.115Z,100821.41
2023-05-14T16:28:01.500Z,100819.53
2023-05-14T16:30:29.244Z,100823.97
2023-05-14T16:32:57.054Z,100820.59
2023-05-14T16:35:24.793Z,100817.50
2023-05-14T16:37:52.448Z,100810.13
2023-05-14T16:40:20.260Z,100812.38
2023-05-14T16:42:49.764Z,100809.00
2023-05-14T16:45:17.432Z,100813.28
2023-05-14T16:47:45.368Z,100808.84
2023-05-14T16:50:13.118Z,100811.34
2023-05-14T16:52:40.797Z,100812.09
2023-05-14T16:55:09.344Z,100815.31
2023-05-14T16:57:37.087Z,100809.97
2023-05-14T17:00:07.818Z,100807.50
2023-05-14T17:02:35.580Z,100808.28
2023-05-14T17:05:03.978Z,100816.16
2023-05-14T17:07:32.178Z,100807.47
2023-05-14T17:10:00.783Z,100815.06
2023-05-14T17:12:28.538Z,100809.59
2023-05-14T17:14:56.246Z,100805.56
2023-05-14T17:17:25.415Z,100802.72
2023-05-14T17:19:53.152Z,100795.78
2023-05-14T17:22:21.211Z,100803.72
2023-05-14T17:24:48.875Z,100803.81
2023-05-14T17:27:16.843Z,100804.28
2023-05-14T17:29:44.596Z,100796.59
2023-05-14T17:32:12.702Z,100805.09
2023-05-14T17:34:41.775Z,100805.09
2023-05-14T17:37:09.561Z,100804.41
2023-05-14T17:39:37.398Z,100799.41
2023-05-14T17:42:06.342Z,100784.97
2023-05-14T17:44:34.038Z,100795.75
2023-05-14T17:47:03.097Z,100799.03
2023-05-14T17:49:30.846Z,100802.75
2023-05-14T17:51:59.830Z,100810.50
2023-05-14T17:54:27.835Z,100814.50
2023-05-14T17:56:55.659Z,100803.97
2023-05-14T17:59:24.368Z,100819.63
2023-05-14T18:01:52.233Z,100809.53
2023-05-14T18:04:19.957Z,100819.91
2023-05-14T18:06:47.704Z,100822.72
2023-05-14T18:09:16.857Z,100829.09
2023-05-14T18:11:45.296Z,100821.59
2023-05-14T18:14:13.084Z,100819.91
2023-05-14T18:16:41.250Z,100826.94
2023-05-14T18:19:09.047Z,100836.13
2023-05-14T18:21:36.944Z,100823.91
2023-05-14T18:24:04.987Z,100823.88
2023-05-14T18:26:35.012Z,100826.59
2023-05-14T18:29:02.711Z,100826.00
2023-05-14T18:31:30.572Z,100820.75
2023-05-14T18:33:58.391Z,100819.06
2023-05-14T18:36:26.132Z,100824.19
2023-05-14T18:38:53.830Z,100824.53
2023-05-14T18:41:21.519Z,100820.00
2023-05-14T18:43:50.616Z,100824.28
2023-05-14T18:46:18.358Z,100812.88
2023-05-14T18:48:46.028Z,100820.81
2023-05-14T18:51:13.916Z,100821.63
2023-05-14T18:53:41.639Z,100818.41
2023-05-14T18:56:09.586Z,100822.38
2023-05-14T18:58:37.394Z,100821.53
2023-05-14T19:01:06.433Z,100812.50
2023-05-14T19:03:34.299Z,100820.06
2023-05-14T19:06:02.046Z,100822.91
2023-05-14T19:08:29.732Z,100825.41
2023-05-14T19:10:57.370Z,100819.78
2023-05-14T19:13:25.514Z,100824.56
2023-05-14T19:15:53.290Z,100818.91
2023-05-14T19:18:22.390Z,100820.84
2023-05-14T19:20:50.122Z,100825.06
2023-05-14T19:23:17.848Z,100821.34
2023-05-14T19:25:45.913Z,100825.78
2023-05-14T19:28:13.617Z,100814.63
2023-05-14T19:30:41.292Z,100819.47
2023-05-14T19:33:09.038Z,100827.63
2023-05-14T19:35:38.250Z,100823.66
2023-05-14T19:38:05.970Z,100823.94
2023-05-14T19:40:33.646Z,100828.69
2023-05-14T19:43:01.367Z,100835.91
2023-05-14T19:45:29.439Z,100828.69
2023-05-14T19:47:57.429Z,100836.66
2023-05-14T19:50:25.198Z,100835.44
2023-05-14T19:52:54.263Z,100855.66
2023-05-14T19:55:21.947Z,100856.00
2023-05-14T19:57:49.661Z,100863.03
2023-05-14T20:00:17.810Z,100853.47
2023-05-14T20:02:45.567Z,100858.91
2023-05-14T20:05:13.930Z,100864.84
2023-05-14T20:07:42.120Z,100858.59
2023-05-14T20:10:11.809Z,100863.06
2023-05-14T20:12:39.637Z,100858.06
2023-05-14T20:15:08.104Z,100858.84
2023-05-14T20:17:35.791Z,100874.63
2023-05-14T20:20:04.900Z,100867.03
2023-05-14T20:22:32.631Z,100855.44
2023-05-14T20:25:00.287Z,100860.47
2023-05-14T20:27:29.383Z,100861.66
2023-05-14T20:29:57.070Z,100865.13
2023-05-14T20:32:25.434Z,100873.69
2023-05-14T20:34:53.095Z,100870.91
2023-05-14T20:37:21.563Z,100868.94
2023-05-14T20:39:49.264Z,100867.00
2023-05-14T20:42:16.914Z,100855.78
2023-05-14T20:44:48.221Z,100866.00
2023-05-14T20:47:20.092Z,100847.97
2023-05-14T20:49:48.284Z,100865.50
2023-05-14T20:52:16.545Z,100861.75
2023-05-14T20:54:44.451Z,100865.56
2023-05-14T20:57:12.937Z,100861.53
2023-05-14T20:59:40.633Z,100859.28
2023-05-14T21:02:09.909Z,100856.69
2023-05-14T21:04:37.860Z,100844.81
2023-05-14T21:07:06.340Z,100846.59
2023-05-14T21:09:34.183Z,100850.16
2023-05-14T21:12:01.922Z,100834.63
2023-05-14T21:14:29.583Z,100838.09
2023-05-14T21:16:57.326Z,100838.34
2023-05-14T21:19:26.331Z,100832.34
2023-05-14T21:21:54.059Z,100830.88
2023-05-14T21:24:21.764Z,100841.91
2023-05-14T21:26:49.997Z,100838.94
2023-05-14T21:29:18.775Z,100842.63
2023-05-14T21:31:46.529Z,100841.69
2023-05-14T21:34:14.273Z,100836.50
2023-05-14T21:36:43.374Z,100849.34
2023-05-14T21:39:11.060Z,100830.03
2023-05-14T21:41:38.835Z,100821.31
2023-05-14T21:44:06.731Z,100823.88
2023-05-14T21:46:34.422Z,100817.72
2023-05-14T21:49:02.199Z,100827.28
2023-05-14T21:51:29.972Z,100825.38
2023-05-14T21:53:59.059Z,100821.44
2023-05-14T21:56:27.287Z,100809.41
2023-05-14T21:58:56.116Z,100841.34
2023-05-14T22:01:24.579Z,100828.53
2023-05-14T22:03:52.387Z,100827.06
2023-05-14T22:06:20.113Z,100819.50
2023-05-14T22:08:47.830Z,100810.84
2023-05-14T22:11:16.897Z,100806.13
2023-05-14T22:13:44.530Z,100813.00
2023-05-14T22:16:14.017Z,100827.13
2023-05-14T22:18:42.580Z,100820.91
2023-05-14T22:21:10.254Z,100826.69
2023-05-14T22:23:37.960Z,100818.69
2023-05-14T22:26:05.988Z,100820.97
2023-05-14T22:28:35.107Z,100821.31
2023-05-14T22:31:04.214Z,100830.75
2023-05-14T22:33:33.118Z,100826.19
2023-05-14T22:36:00.794Z,100811.59
2023-05-14T22:38:28.487Z,100812.81
2023-05-14T22:40:56.127Z,100805.56
2023-05-14T22:43:23.912Z,100806.22
2023-05-14T22:45:52.988Z,100809.66
2023-05-14T22:48:20.641Z,100806.63
2023-05-14T22:50:48.290Z,100804.81
2023-05-14T22:53:16.216Z,100815.31
2023-05-14T22:55:43.897Z,100802.03
2023-05-14T22:58:11.774Z,100800.72
2023-05-14T23:00:39.515Z,100800.63
2023-05-14T23:03:08.704Z,100795.63
2023-05-14T23:05:36.499Z,100798.38
2023-05-14T23:08:04.419Z,100798.00
2023-05-14T23:10:32.084Z,100798.94
2023-05-14T23:12:59.746Z,100796.41
2023-05-14T23:15:27.729Z,100790.81
2023-05-14T23:17:55.539Z,100789.47
2023-05-14T23:20:24.986Z,100790.94
2023-05-14T23:22:54.070Z,100789.50
2023-05-14T23:25:21.979Z,100787.97
2023-05-14T23:27:50.067Z,100784.66
2023-05-14T23:30:17.961Z,100772.84
2023-05-14T23:32:45.782Z,100781.06
2023-05-14T23:35:13.521Z,100774.75
2023-05-14T23:37:47.234Z,100777.00
2023-05-14T23:40:15.700Z,100767.38
2023-05-14T23:42:43.906Z,100771.25
2023-05-14T23:45:12.805Z,100764.66
2023-05-14T23:47:41.438Z,100761.91
2023-05-14T23:50:09.492Z,100752.38
2023-05-14T23:52:37.171Z,100751.97
2023-05-14T23:55:07.232Z,100745.88
2023-05-14T23:57:35.062Z,100739.44
